Time;durP1;ratioP1;P1;durP2;ratioP2;P2;SDS_P1;SDS_P2;PMS_P1;PMS_P2;Temp;Humidity;BMP_temperature;BMP_pressure;BME280_temperature;BME280_humidity;BME280_pressure;Samples;Min_cycle;Max_cycle;Signal;HPM_P1;HPM_P2
2021/09/03 00:02:22;;;;;;;28.35;16.42;;;17.30;75.70;;;;;;4959544;28;20287;-88
2021/09/03 00:04:48;;;;;;;26.80;15.00;;;17.40;75.50;;;;;;4960257;28;20215;-88
2021/09/03 00:07:14;;;;;;;35.05;17.08;;;17.30;75.50;;;;;;4960647;28;20215;-88
2021/09/03 00:09:40;;;;;;;30.43;16.30;;;17.30;75.70;;;;;;4959485;28;20180;-87
2021/09/03 00:12:08;;;;;;;27.10;16.17;;;17.20;75.70;;;;;;4960039;28;20176;-87
2021/09/03 00:14:35;;;;;;;28.40;16.90;;;17.20;76.00;;;;;;4960932;28;20899;-87
2021/09/03 00:17:02;;;;;;;27.38;16.85;;;17.20;76.00;;;;;;4959706;28;20193;-87
2021/09/03 00:19:28;;;;;;;27.77;16.48;;;17.10;76.00;;;;;;4960178;28;20190;-87
2021/09/03 00:21:54;;;;;;;26.77;15.00;;;17.20;76.10;;;;;;4959376;28;20188;-87
2021/09/03 00:24:22;;;;;;;32.67;16.93;;;17.20;76.00;;;;;;4960475;28;20714;-88
2021/09/03 00:26:49;;;;;;;32.92;16.33;;;17.10;76.10;;;;;;4959536;28;20566;-89
2021/09/03 00:29:15;;;;;;;30.17;16.65;;;17.10;76.20;;;;;;4959561;28;20235;-88
2021/09/03 00:31:41;;;;;;;32.10;16.88;;;17.00;76.20;;;;;;4959195;28;20575;-88
2021/09/03 00:34:07;;;;;;;34.67;17.60;;;17.00;76.40;;;;;;4959760;28;20203;-88
2021/09/03 00:36:33;;;;;;;32.00;15.63;;;17.00;76.50;;;;;;4976815;28;20616;-87
2021/09/03 00:38:58;;;;;;;23.87;15.70;;;17.00;76.40;;;;;;4996538;28;20182;-88
2021/09/03 00:41:24;;;;;;;30.60;16.40;;;17.00;76.40;;;;;;4978701;28;20183;-88
2021/09/03 00:43:50;;;;;;;27.70;16.80;;;17.10;76.50;;;;;;4978851;28;20667;-87
2021/09/03 00:46:16;;;;;;;29.87;16.23;;;17.00;76.30;;;;;;4979291;28;20414;-88
2021/09/03 00:48:42;;;;;;;29.52;16.45;;;17.00;76.20;;;;;;4996825;28;20179;-88
2021/09/03 00:51:08;;;;;;;36.30;17.37;;;17.00;76.40;;;;;;4978916;28;20190;-88
2021/09/03 00:53:37;;;;;;;26.90;17.00;;;17.00;76.30;;;;;;4996610;28;20662;-88
2021/09/03 00:56:26;;;;;;;27.75;16.90;;;17.10;76.50;;;;;;4981244;28;20422;-89
2021/09/03 00:58:52;;;;;;;29.73;16.52;;;17.00;76.10;;;;;;4980141;28;20179;-89
2021/09/03 01:01:20;;;;;;;35.30;17.03;;;16.90;76.40;;;;;;4981550;28;20242;-88
2021/09/03 01:03:46;;;;;;;32.92;17.40;;;16.80;76.50;;;;;;4984095;28;20222;-88
2021/09/03 01:06:12;;;;;;;31.77;16.58;;;16.90;76.50;;;;;;4984198;28;20237;-88
2021/09/03 01:08:41;;;;;;;25.08;15.98;;;16.90;76.60;;;;;;4977115;28;20175;-89
2021/09/03 01:11:07;;;;;;;35.50;16.58;;;16.90;76.60;;;;;;4985605;28;20218;-87
2021/09/03 01:13:33;;;;;;;36.63;18.00;;;16.90;76.60;;;;;;4985040;28;20203;-87
2021/09/03 01:15:58;;;;;;;34.20;16.47;;;16.80;76.70;;;;;;4985477;28;20430;-87
2021/09/03 01:18:24;;;;;;;34.03;15.77;;;16.80;76.70;;;;;;4985405;28;20171;-87
2021/09/03 01:20:50;;;;;;;25.17;15.67;;;16.80;76.70;;;;;;4985193;28;20204;-86
2021/09/03 01:23:16;;;;;;;30.20;18.13;;;16.80;76.70;;;;;;4984783;28;20211;-86
2021/09/03 01:25:42;;;;;;;39.73;18.77;;;16.80;76.80;;;;;;4985150;28;20222;-86
2021/09/03 01:28:08;;;;;;;31.03;17.00;;;16.80;76.70;;;;;;5001921;28;20427;-86
2021/09/03 01:30:34;;;;;;;34.63;16.05;;;16.80;76.60;;;;;;4984964;28;20230;-87
2021/09/03 01:33:00;;;;;;;30.80;16.77;;;16.80;76.50;;;;;;5001431;28;20203;-86
2021/09/03 01:35:26;;;;;;;30.85;17.55;;;16.80;76.80;;;;;;4984793;28;20422;-87
2021/09/03 01:37:51;;;;;;;28.20;17.73;;;16.70;76.90;;;;;;4985202;28;20180;-87
2021/09/03 01:40:17;;;;;;;24.70;15.43;;;16.60;77.10;;;;;;4984964;28;20168;-87
2021/09/03 01:42:43;;;;;;;32.17;16.20;;;16.50;77.40;;;;;;4977810;28;20559;-88
2021/09/03 01:45:29;;;;;;;40.00;17.80;;;16.60;77.40;;;;;;4962210;28;20466;-89
2021/09/03 01:47:54;;;;;;;30.45;16.27;;;16.60;77.30;;;;;;4962289;28;20627;-89
2021/09/03 01:50:20;;;;;;;23.03;14.97;;;16.60;77.40;;;;;;4964209;28;20184;-89
2021/09/03 01:52:46;;;;;;;29.60;17.30;;;16.60;77.40;;;;;;4962149;28;20928;-89
2021/09/03 01:55:14;;;;;;;30.83;17.73;;;16.60;77.40;;;;;;4962101;28;20184;-89
2021/09/03 01:57:39;;;;;;;29.33;17.08;;;16.50;77.40;;;;;;4965017;28;20226;-89
2021/09/03 02:00:06;;;;;;;29.17;16.87;;;16.50;77.50;;;;;;4980422;28;20184;-89
2021/09/03 02:02:31;;;;;;;29.42;17.92;;;16.60;77.50;;;;;;4962588;28;20231;-89
2021/09/03 02:05:10;;;;;;;28.97;17.60;;;16.60;77.30;;;;;;4964409;28;20204;-89
2021/09/03 02:07:36;;;;;;;33.28;17.98;;;16.60;77.10;;;;;;4966095;28;20176;-89
2021/09/03 02:10:03;;;;;;;32.60;17.57;;;16.50;77.20;;;;;;4963478;28;20543;-89
2021/09/03 02:12:29;;;;;;;36.50;17.92;;;16.50;77.50;;;;;;4962773;28;20206;-89
2021/09/03 02:14:54;;;;;;;30.63;18.23;;;16.40;77.60;;;;;;4964039;28;20184;-89
2021/09/03 02:17:20;;;;;;;33.00;17.87;;;16.50;77.80;;;;;;4962075;28;20191;-90
2021/09/03 02:19:46;;;;;;;34.20;18.57;;;16.50;77.70;;;;;;4961947;28;20180;-88
2021/09/03 02:22:11;;;;;;;32.73;18.47;;;16.50;77.70;;;;;;4961380;28;20675;-88
2021/09/03 02:24:37;;;;;;;30.87;16.07;;;16.50;77.60;;;;;;4962662;28;20235;-88
2021/09/03 02:27:03;;;;;;;32.40;20.20;;;16.50;77.80;;;;;;4963172;28;20179;-89
2021/09/03 02:29:29;;;;;;;34.80;19.17;;;16.40;77.80;;;;;;4977791;28;20470;-87
2021/09/03 02:31:55;;;;;;;38.50;20.63;;;16.40;78.70;;;;;;4982611;28;20458;-88
2021/09/03 02:34:23;;;;;;;32.97;20.33;;;16.40;78.00;;;;;;4985797;28;20184;-87
2021/09/03 02:36:49;;;;;;;33.90;20.10;;;16.30;78.00;;;;;;4962795;28;20211;-88
2021/09/03 02:39:15;;;;;;;33.47;19.10;;;16.30;78.00;;;;;;4980558;28;20184;-88
2021/09/03 02:41:40;;;;;;;38.38;18.67;;;16.20;78.10;;;;;;4962575;28;20187;-87
2021/09/03 02:44:06;;;;;;;35.40;20.47;;;16.20;78.40;;;;;;4965325;28;20212;-88
2021/09/03 02:46:32;;;;;;;39.00;19.43;;;16.20;78.50;;;;;;4963839;28;20188;-87
2021/09/03 02:48:58;;;;;;;35.13;19.67;;;16.20;78.60;;;;;;4984287;28;20179;-87
2021/09/03 02:51:23;;;;;;;37.90;19.97;;;16.20;78.60;;;;;;4970833;28;20180;-87
2021/09/03 02:53:49;;;;;;;37.37;20.93;;;16.20;78.80;;;;;;4980773;28;20203;-86
2021/09/03 02:56:15;;;;;;;44.37;21.20;;;16.10;78.90;;;;;;4983865;28;20184;-87
2021/09/03 02:58:40;;;;;;;30.73;20.30;;;16.10;78.90;;;;;;4983654;28;20187;-88
2021/09/03 03:01:06;;;;;;;32.27;18.37;;;16.10;78.90;;;;;;4989195;28;20195;-89
2021/09/03 03:03:32;;;;;;;37.20;21.87;;;16.20;78.90;;;;;;4967478;28;20680;-89
2021/09/03 03:05:57;;;;;;;38.27;22.30;;;16.20;78.70;;;;;;4968722;28;20184;-89
2021/09/03 03:08:23;;;;;;;40.80;22.10;;;16.20;78.60;;;;;;4969482;28;20204;-89
2021/09/03 03:10:49;;;;;;;33.27;18.40;;;16.20;78.50;;;;;;4967211;28;20180;-89
2021/09/03 03:13:36;;;;;;;35.27;21.30;;;16.20;78.70;;;;;;4974783;28;20219;-88
2021/09/03 03:16:10;;;;;;;41.35;22.02;;;16.20;78.70;;;;;;4978498;28;20243;-89
2021/09/03 03:18:35;;;;;;;32.30;19.83;;;16.10;78.50;;;;;;4960941;28;20187;-89
2021/09/03 03:21:01;;;;;;;44.73;20.93;;;16.20;78.60;;;;;;4961155;28;20176;-88
2021/09/03 03:23:27;;;;;;;49.60;21.33;;;16.10;78.70;;;;;;4959834;28;20287;-88
2021/09/03 03:25:54;;;;;;;44.30;22.80;;;16.10;78.80;;;;;;4961015;28;20175;-87
2021/09/03 03:28:27;;;;;;;41.92;21.05;;;16.10;78.90;;;;;;4978122;28;20194;-87
2021/09/03 03:30:52;;;;;;;34.97;20.58;;;16.20;78.80;;;;;;4966896;28;20311;-88
2021/09/03 03:33:18;;;;;;;34.00;19.60;;;16.10;78.70;;;;;;4963907;28;20212;-87
2021/09/03 03:35:43;;;;;;;40.20;21.43;;;16.10;78.90;;;;;;4963399;28;20230;-87
2021/09/03 03:38:09;;;;;;;36.33;22.07;;;16.00;78.70;;;;;;4966183;28;20666;-88
2021/09/03 03:40:35;;;;;;;36.50;21.70;;;16.00;79.00;;;;;;4981059;28;20248;-88
2021/09/03 03:43:01;;;;;;;50.00;23.30;;;16.00;79.00;;;;;;4962839;28;21020;-89
2021/09/03 03:45:26;;;;;;;40.50;20.07;;;15.90;79.20;;;;;;4966243;28;20246;-89
2021/09/03 03:47:52;;;;;;;33.00;20.53;;;15.90;79.40;;;;;;4962693;28;20219;-90
2021/09/03 03:50:18;;;;;;;40.87;21.87;;;15.90;79.40;;;;;;4965707;28;20214;-89
2021/09/03 03:52:44;;;;;;;44.20;22.17;;;16.00;79.40;;;;;;4963433;28;20660;-89
2021/09/03 03:55:10;;;;;;;39.93;22.40;;;15.90;79.50;;;;;;4965724;28;20183;-90
2021/09/03 03:57:36;;;;;;;41.97;22.42;;;15.80;79.50;;;;;;4963742;28;20179;-89
2021/09/03 04:00:07;;;;;;;35.97;19.80;;;15.90;79.70;;;;;;4959948;28;20183;-89
2021/09/03 04:02:33;;;;;;;47.92;23.67;;;15.90;79.60;;;;;;4960447;28;20435;-90
2021/09/03 04:04:59;;;;;;;45.53;22.83;;;15.80;79.50;;;;;;4958359;29;20218;-90
2021/09/03 04:07:25;;;;;;;32.37;21.03;;;15.80;79.60;;;;;;4961849;28;20436;-90
2021/09/03 04:09:51;;;;;;;41.17;21.50;;;15.80;79.70;;;;;;4962740;28;20266;-90
2021/09/03 04:12:17;;;;;;;40.63;22.60;;;15.80;79.80;;;;;;4960728;28;20199;-90
2021/09/03 04:14:43;;;;;;;40.77;21.10;;;15.70;79.70;;;;;;4960766;28;20251;-90
2021/09/03 04:17:09;;;;;;;42.83;21.80;;;15.80;79.80;;;;;;4958736;28;20191;-90
2021/09/03 04:19:34;;;;;;;38.93;21.30;;;15.80;79.90;;;;;;4958709;28;20283;-90
2021/09/03 04:22:00;;;;;;;38.10;21.73;;;15.80;80.00;;;;;;4958985;28;20191;-90
2021/09/03 04:24:26;;;;;;;39.80;22.80;;;15.90;79.80;;;;;;4958744;28;20200;-90
2021/09/03 04:26:52;;;;;;;39.87;23.27;;;15.90;79.60;;;;;;4977263;28;20420;-89
2021/09/03 04:29:18;;;;;;;37.25;23.20;;;15.80;79.50;;;;;;4959637;28;20176;-89
2021/09/03 04:31:43;;;;;;;39.40;22.00;;;15.80;79.50;;;;;;4959107;28;20203;-90
2021/09/03 04:34:09;;;;;;;44.70;24.60;;;15.80;79.70;;;;;;4960174;28;20291;-88
2021/09/03 04:36:35;;;;;;;36.50;21.43;;;15.70;79.80;;;;;;4962651;28;20187;-89
2021/09/03 04:39:00;;;;;;;43.80;21.80;;;15.80;79.60;;;;;;4984009;28;20185;-89
2021/09/03 04:41:26;;;;;;;43.83;24.30;;;15.80;79.60;;;;;;4984233;28;20190;-89
2021/09/03 04:43:52;;;;;;;37.93;20.90;;;15.80;79.60;;;;;;4982500;28;20211;-87
2021/09/03 04:46:18;;;;;;;43.83;23.80;;;15.80;79.60;;;;;;4984997;28;20190;-88
2021/09/03 04:48:43;;;;;;;38.50;22.20;;;15.60;79.60;;;;;;5001889;28;20217;-89
2021/09/03 04:51:09;;;;;;;39.30;21.83;;;15.60;80.60;;;;;;4986097;28;20266;-88
2021/09/03 04:53:35;;;;;;;34.40;23.17;;;15.70;80.00;;;;;;4987017;28;20199;-89
2021/09/03 04:56:00;;;;;;;35.37;22.33;;;15.60;80.10;;;;;;4987307;28;20249;-89
2021/09/03 04:58:26;;;;;;;42.60;22.00;;;15.60;80.20;;;;;;4990690;28;20270;-89
2021/09/03 05:00:52;;;;;;;42.90;26.10;;;15.60;80.10;;;;;;4990898;28;20306;-89
2021/09/03 05:03:18;;;;;;;44.87;23.10;;;15.60;80.10;;;;;;4988694;28;20450;-89
2021/09/03 05:05:44;;;;;;;45.17;26.10;;;15.60;80.10;;;;;;4986142;28;20199;-89
2021/09/03 05:08:09;;;;;;;42.90;21.90;;;15.60;80.20;;;;;;4985389;28;20983;-89
2021/09/03 05:10:35;;;;;;;47.57;22.77;;;15.50;80.40;;;;;;4986181;28;20425;-91
2021/09/03 05:13:01;;;;;;;37.53;23.87;;;15.50;80.50;;;;;;4986015;28;20199;-90
2021/09/03 05:15:47;;;;;;;43.70;23.37;;;15.50;80.40;;;;;;4983316;28;20202;-89
2021/09/03 05:18:13;;;;;;;43.42;23.75;;;15.50;80.60;;;;;;4983369;28;20187;-90
2021/09/03 05:20:38;;;;;;;44.50;25.47;;;15.50;80.70;;;;;;4982641;28;20665;-89
2021/09/03 05:23:04;;;;;;;38.67;22.90;;;15.50;80.90;;;;;;4982284;28;20442;-91
2021/09/03 05:25:30;;;;;;;40.13;22.30;;;15.60;80.60;;;;;;4982673;28;20199;-90
2021/09/03 05:27:56;;;;;;;35.67;20.80;;;15.50;80.50;;;;;;4982643;28;20172;-91
2021/09/03 05:30:21;;;;;;;39.97;23.43;;;15.60;80.30;;;;;;4982548;28;20172;-90
2021/09/03 05:32:47;;;;;;;42.00;24.67;;;15.60;80.20;;;;;;4982319;28;20219;-90
2021/09/03 05:35:14;;;;;;;49.70;25.30;;;15.70;80.20;;;;;;4981415;28;20214;-89
2021/09/03 05:37:40;;;;;;;36.33;22.63;;;15.70;80.00;;;;;;4971714;28;20453;-90
2021/09/03 05:40:07;;;;;;;37.30;22.83;;;15.80;80.00;;;;;;4982025;28;20265;-90
2021/09/03 05:42:34;;;;;;;41.70;23.48;;;15.80;79.90;;;;;;4982088;28;20207;-90
2021/09/03 05:45:03;;;;;;;37.75;23.25;;;15.80;79.80;;;;;;4981764;28;20609;-90
2021/09/03 05:47:29;;;;;;;36.03;22.90;;;16.00;79.50;;;;;;4981001;28;20179;-90
2021/09/03 05:49:55;;;;;;;41.07;22.23;;;16.10;79.50;;;;;;4982861;28;20554;-89
2021/09/03 05:52:21;;;;;;;33.70;20.55;;;16.50;78.90;;;;;;4998815;28;20238;-90
2021/09/03 05:54:46;;;;;;;32.03;19.83;;;17.00;77.50;;;;;;4982356;28;20191;-89
2021/09/03 05:57:12;;;;;;;26.43;18.63;;;17.60;75.20;;;;;;4967203;28;20207;-89
2021/09/03 05:59:38;;;;;;;36.03;20.93;;;18.20;73.30;;;;;;4964814;28;20654;-89
2021/09/03 06:02:03;;;;;;;29.30;18.40;;;18.50;70.90;;;;;;4981799;28;20192;-89
2021/09/03 06:04:29;;;;;;;26.33;18.70;;;18.90;69.40;;;;;;4964762;28;20303;-89
2021/09/03 06:06:55;;;;;;;26.63;19.00;;;19.20;67.90;;;;;;4974327;28;20198;-86
2021/09/03 06:09:24;;;;;;;29.67;18.67;;;19.30;66.80;;;;;;4983543;28;20211;-87
2021/09/03 06:11:52;;;;;;;25.50;18.10;;;19.30;66.40;;;;;;4965860;29;20196;-88
2021/09/03 06:14:18;;;;;;;26.88;18.23;;;19.20;66.00;;;;;;4944991;29;20188;-88
2021/09/03 06:16:43;;;;;;;30.40;18.83;;;19.00;66.40;;;;;;4943518;29;20176;-89
2021/09/03 06:19:09;;;;;;;30.07;18.80;;;19.00;66.60;;;;;;4942346;29;20188;-89
2021/09/03 06:21:35;;;;;;;32.83;18.10;;;19.00;66.80;;;;;;4941687;29;20188;-89
2021/09/03 06:24:00;;;;;;;26.27;18.50;;;19.00;66.80;;;;;;4941772;29;20204;-88
2021/09/03 06:26:26;;;;;;;32.80;19.27;;;19.20;67.00;;;;;;4961635;29;20188;-87
2021/09/03 06:28:52;;;;;;;30.27;18.40;;;19.30;66.10;;;;;;4960445;29;20482;-87
2021/09/03 06:31:17;;;;;;;28.17;17.67;;;19.20;66.10;;;;;;4944205;29;20188;-89
2021/09/03 06:33:43;;;;;;;31.20;19.50;;;19.40;66.10;;;;;;4943016;29;20303;-88
2021/09/03 06:36:09;;;;;;;31.10;20.07;;;19.30;65.70;;;;;;4964373;28;20184;-88
2021/09/03 06:38:35;;;;;;;32.80;20.13;;;19.10;66.10;;;;;;4964370;28;20188;-86
2021/09/03 06:41:00;;;;;;;36.37;21.43;;;19.20;66.50;;;;;;4956012;28;20560;-91
2021/09/03 06:43:26;;;;;;;31.60;21.43;;;19.30;66.40;;;;;;4944714;29;20259;-90
2021/09/03 06:45:52;;;;;;;33.83;21.75;;;19.20;66.20;;;;;;4943628;29;20219;-90
2021/09/03 06:48:22;;;;;;;33.90;20.50;;;19.30;66.40;;;;;;4943521;29;20180;-90
2021/09/03 06:50:48;;;;;;;31.05;21.13;;;19.10;66.60;;;;;;4942548;29;20191;-89
2021/09/03 06:53:14;;;;;;;35.45;22.35;;;19.00;67.20;;;;;;4943270;29;20208;-91
2021/09/03 06:55:40;;;;;;;37.20;23.33;;;18.50;68.30;;;;;;4944091;29;20187;-90
2021/09/03 06:58:07;;;;;;;35.40;22.63;;;18.30;69.50;;;;;;4944777;29;20188;-90
2021/09/03 07:00:33;;;;;;;35.10;23.27;;;18.20;70.20;;;;;;4944313;29;20185;-91
2021/09/03 07:03:00;;;;;;;41.13;23.60;;;18.10;70.80;;;;;;4943866;29;20279;-91
2021/09/03 07:05:26;;;;;;;34.13;23.23;;;18.10;71.30;;;;;;4961088;28;20200;-88
2021/09/03 07:07:52;;;;;;;41.60;24.20;;;18.10;71.50;;;;;;4970693;28;20184;-89
2021/09/03 07:10:18;;;;;;;37.07;21.83;;;18.00;71.80;;;;;;4983312;28;20179;-87
2021/09/03 07:12:44;;;;;;;42.67;23.97;;;18.00;72.10;;;;;;4983004;28;20184;-90
2021/09/03 07:15:10;;;;;;;46.37;24.47;;;18.10;72.30;;;;;;4983043;28;20188;-89
2021/09/03 07:17:36;;;;;;;42.28;25.05;;;18.00;72.30;;;;;;5000270;28;20156;-89
2021/09/03 07:20:02;;;;;;;38.30;24.27;;;18.00;72.70;;;;;;4983211;28;20180;-87
2021/09/03 07:22:28;;;;;;;38.80;24.50;;;18.00;72.70;;;;;;4982850;28;20191;-88
2021/09/03 07:24:53;;;;;;;34.47;23.27;;;18.00;72.80;;;;;;4983048;28;20231;-90
2021/09/03 07:27:19;;;;;;;36.57;24.77;;;18.00;72.80;;;;;;4983043;28;20249;-89
2021/09/03 07:29:45;;;;;;;42.77;26.93;;;18.00;72.80;;;;;;4982993;28;20178;-90
2021/09/03 07:32:11;;;;;;;38.20;25.55;;;18.00;72.90;;;;;;4982762;28;20207;-90
2021/09/03 07:34:37;;;;;;;45.40;25.27;;;18.00;72.90;;;;;;4983098;28;20178;-89
2021/09/03 07:37:03;;;;;;;37.93;25.23;;;18.00;72.90;;;;;;5000024;28;20231;-89
2021/09/03 07:39:29;;;;;;;38.60;25.87;;;18.00;72.80;;;;;;4983164;28;20416;-88
2021/09/03 07:41:55;;;;;;;41.10;24.75;;;18.10;73.10;;;;;;4982982;28;20164;-89
2021/09/03 07:44:21;;;;;;;38.70;23.77;;;18.10;72.90;;;;;;4983073;28;20295;-89
2021/09/03 07:46:47;;;;;;;41.00;24.10;;;18.00;73.10;;;;;;4983007;28;20180;-89
2021/09/03 07:49:14;;;;;;;36.35;24.83;;;18.20;73.20;;;;;;4983176;28;20427;-88
2021/09/03 07:51:40;;;;;;;40.17;25.80;;;18.30;73.10;;;;;;4982798;28;20168;-91
2021/09/03 07:54:06;;;;;;;42.67;26.90;;;18.20;72.90;;;;;;4982816;28;20184;-89
2021/09/03 07:56:31;;;;;;;43.57;23.57;;;18.40;72.70;;;;;;4982869;28;20188;-88
2021/09/03 07:58:57;;;;;;;42.33;25.23;;;18.40;72.30;;;;;;4983034;28;20235;-88
2021/09/03 08:01:23;;;;;;;44.97;25.03;;;18.50;72.30;;;;;;4999592;28;20247;-90
2021/09/03 08:03:48;;;;;;;48.37;26.23;;;18.50;72.40;;;;;;4982751;28;20187;-89
2021/09/03 08:06:14;;;;;;;33.03;23.53;;;18.30;72.80;;;;;;4982737;28;20168;-92
2021/09/03 08:08:40;;;;;;;42.67;24.33;;;18.40;73.00;;;;;;4982372;28;20186;-89
2021/09/03 08:11:07;;;;;;;42.65;24.98;;;18.50;72.80;;;;;;4999197;28;20164;-89
2021/09/03 08:13:33;;;;;;;40.45;23.58;;;18.50;72.70;;;;;;4982280;28;20211;-91
2021/09/03 08:16:02;;;;;;;44.27;26.53;;;18.70;72.50;;;;;;4982760;28;20183;-89
2021/09/03 08:18:28;;;;;;;39.33;24.95;;;18.70;71.90;;;;;;4982583;28;20199;-91
2021/09/03 08:20:54;;;;;;;40.70;25.67;;;18.80;72.00;;;;;;4982002;28;20191;-90
2021/09/03 08:23:20;;;;;;;40.77;24.10;;;18.70;71.70;;;;;;4972984;28;20473;-90
2021/09/03 08:25:46;;;;;;;36.87;24.33;;;18.70;71.70;;;;;;4965582;28;20531;-89
2021/09/03 08:28:11;;;;;;;42.50;24.33;;;18.60;71.90;;;;;;4963765;28;20438;-90
2021/09/03 08:30:37;;;;;;;37.63;26.13;;;18.80;72.10;;;;;;4963828;28;20172;-90
2021/09/03 08:33:03;;;;;;;37.20;25.57;;;18.80;71.90;;;;;;4964185;28;20290;-89
2021/09/03 08:35:29;;;;;;;38.90;23.77;;;19.00;71.80;;;;;;4961936;28;20203;-90
2021/09/03 08:37:55;;;;;;;39.65;24.00;;;19.10;71.30;;;;;;4971903;28;20213;-90
2021/09/03 08:40:21;;;;;;;33.70;23.73;;;19.20;70.90;;;;;;4980689;28;20183;-91
2021/09/03 08:42:47;;;;;;;37.60;24.20;;;19.20;71.10;;;;;;4980339;28;20202;-90
2021/09/03 08:45:14;;;;;;;34.10;25.20;;;19.20;71.00;;;;;;4981677;28;20257;-90
2021/09/03 08:47:42;;;;;;;40.78;23.83;;;19.40;70.70;;;;;;4980267;28;20266;-90
2021/09/03 08:50:11;;;;;;;35.75;23.88;;;19.40;70.50;;;;;;4979717;28;20618;-91
2021/09/03 08:52:39;;;;;;;37.60;23.52;;;19.40;70.40;;;;;;4980497;28;20195;-90
2021/09/03 08:55:05;;;;;;;36.92;23.35;;;19.60;70.30;;;;;;4980618;28;20191;-90
2021/09/03 08:57:31;;;;;;;35.90;22.88;;;19.70;70.00;;;;;;4981605;28;20237;-90
2021/09/03 09:00:01;;;;;;;34.53;21.87;;;19.80;69.50;;;;;;4980156;28;20179;-90
2021/09/03 09:02:27;;;;;;;31.50;21.20;;;19.90;69.10;;;;;;4980108;28;20575;-90
2021/09/03 09:04:53;;;;;;;35.95;20.80;;;20.00;68.60;;;;;;4980110;28;20751;-90
2021/09/03 09:07:24;;;;;;;33.28;20.83;;;20.20;68.10;;;;;;4980625;28;20175;-89
2021/09/03 09:09:49;;;;;;;33.38;21.85;;;20.20;68.00;;;;;;4994720;28;20179;-89
2021/09/03 09:12:17;;;;;;;35.87;22.33;;;20.20;68.10;;;;;;4959688;28;20290;-89
2021/09/03 09:15:06;;;;;;;30.40;20.90;;;20.20;67.90;;;;;;4959525;28;20587;-91
2021/09/03 09:17:32;;;;;;;34.22;21.20;;;20.40;67.80;;;;;;4960955;28;20191;-90
2021/09/03 09:19:58;;;;;;;30.03;21.57;;;20.30;66.90;;;;;;4959011;28;20184;-90
2021/09/03 09:22:24;;;;;;;27.67;19.42;;;20.30;66.90;;;;;;4962371;28;20210;-90
2021/09/03 09:24:50;;;;;;;36.78;20.70;;;20.50;67.30;;;;;;4962985;28;20208;-90
2021/09/03 09:27:26;;;;;;;34.57;21.83;;;20.60;66.90;;;;;;4962335;28;20192;-90
2021/09/03 09:29:53;;;;;;;31.55;20.63;;;20.70;66.80;;;;;;4962832;28;20674;-90
2021/09/03 09:32:19;;;;;;;36.45;19.27;;;20.80;66.50;;;;;;4962535;28;20594;-90
2021/09/03 09:34:46;;;;;;;28.25;19.67;;;20.80;65.90;;;;;;4981544;28;20203;-91
2021/09/03 09:37:17;;;;;;;33.03;19.58;;;20.90;65.90;;;;;;4962310;28;20184;-91
2021/09/03 09:39:56;;;;;;;38.20;20.08;;;21.00;65.80;;;;;;4963567;28;20180;-90
2021/09/03 09:42:27;;;;;;;33.00;20.97;;;21.00;65.70;;;;;;4969897;28;20290;-90
2021/09/03 09:45:16;;;;;;;26.43;17.87;;;21.00;65.40;;;;;;4971722;28;20463;-90
2021/09/03 09:47:43;;;;;;;26.93;18.17;;;21.10;65.40;;;;;;4984043;28;20415;-90
2021/09/03 09:50:31;;;;;;;25.73;18.57;;;21.30;65.50;;;;;;4971045;28;20419;-90
2021/09/03 09:53:08;;;;;;;27.88;18.95;;;21.40;65.10;;;;;;4962213;28;20443;-91
2021/09/03 09:55:35;;;;;;;24.07;17.50;;;21.40;64.80;;;;;;4962400;28;20205;-89
2021/09/03 09:58:01;;;;;;;42.13;19.47;;;21.50;64.50;;;;;;4962997;28;20428;-90
2021/09/03 10:00:28;;;;;;;32.33;19.40;;;21.50;64.40;;;;;;4963545;28;20430;-90
2021/09/03 10:02:54;;;;;;;22.73;17.53;;;21.50;64.50;;;;;;4964129;28;21049;-90
2021/09/03 10:05:21;;;;;;;25.93;17.97;;;21.60;64.20;;;;;;4967046;28;20971;-90
2021/09/03 10:07:47;;;;;;;30.80;19.80;;;21.70;64.20;;;;;;4983110;28;20399;-90
2021/09/03 10:10:13;;;;;;;30.33;18.00;;;21.80;64.00;;;;;;4972127;28;20419;-90
2021/09/03 10:12:39;;;;;;;31.73;19.23;;;21.80;63.90;;;;;;4980872;28;20451;-90
2021/09/03 10:15:06;;;;;;;21.67;16.63;;;21.80;63.50;;;;;;4976404;28;20788;-90
2021/09/03 10:17:32;;;;;;;23.80;17.93;;;22.00;63.70;;;;;;4971817;28;20419;-90
2021/09/03 10:19:59;;;;;;;26.53;16.87;;;22.10;63.20;;;;;;4967090;28;20514;-90
2021/09/03 10:22:24;;;;;;;22.83;16.47;;;22.30;62.80;;;;;;4964987;28;20864;-90
2021/09/03 10:25:11;;;;;;;27.07;19.23;;;22.30;62.70;;;;;;4965559;28;20506;-90
2021/09/03 10:27:38;;;;;;;28.67;18.77;;;22.40;62.00;;;;;;4965913;28;20184;-90
2021/09/03 10:30:19;;;;;;;25.60;17.80;;;22.40;62.40;;;;;;4989334;28;20431;-90
2021/09/03 10:32:46;;;;;;;20.10;15.20;;;22.50;62.10;;;;;;4959835;28;20829;-90
2021/09/03 10:35:22;;;;;;;25.60;15.80;;;22.50;61.10;;;;;;4960169;28;20510;-91
2021/09/03 10:37:49;;;;;;;24.20;14.67;;;22.50;60.70;;;;;;4961336;28;20426;-91
2021/09/03 10:40:33;;;;;;;24.23;15.57;;;22.40;61.20;;;;;;4960954;28;20523;-90
2021/09/03 10:42:59;;;;;;;28.53;17.93;;;22.40;61.10;;;;;;4962200;28;20808;-90
2021/09/03 10:45:31;;;;;;;23.67;16.83;;;22.70;61.10;;;;;;4961272;28;20463;-90
2021/09/03 10:48:10;;;;;;;24.10;15.67;;;22.80;61.10;;;;;;4962456;28;20184;-90
2021/09/03 10:50:55;;;;;;;24.03;14.30;;;22.80;60.10;;;;;;4960981;28;20422;-90
2021/09/03 10:53:27;;;;;;;21.67;14.50;;;22.80;59.10;;;;;;4960374;28;20450;-89
2021/09/03 10:56:05;;;;;;;22.40;15.20;;;23.00;58.90;;;;;;4977816;28;20419;-90
2021/09/03 10:58:39;;;;;;;20.80;15.23;;;23.00;58.90;;;;;;4960442;28;20419;-90
2021/09/03 11:01:08;;;;;;;22.90;14.90;;;23.00;58.80;;;;;;4961009;28;20423;-90
2021/09/03 11:03:44;;;;;;;17.40;14.37;;;23.10;58.80;;;;;;4960364;28;20439;-90
2021/09/03 11:06:40;;;;;;;26.73;14.43;;;23.10;58.90;;;;;;4979292;28;20392;-90
2021/09/03 11:09:26;;;;;;;20.43;14.87;;;23.20;58.50;;;;;;4960189;28;20455;-90
2021/09/03 11:12:07;;;;;;;23.00;14.93;;;23.30;58.30;;;;;;4961070;28;20419;-90
2021/09/03 11:14:33;;;;;;;21.90;14.13;;;23.10;58.00;;;;;;4968219;28;20884;-90
2021/09/03 11:17:00;;;;;;;21.10;13.80;;;23.20;57.70;;;;;;4977757;28;20415;-90
2021/09/03 11:19:52;;;;;;;19.67;13.03;;;23.20;56.70;;;;;;4961023;28;20447;-90
2021/09/03 11:22:22;;;;;;;19.93;12.97;;;23.30;56.50;;;;;;4957483;28;21024;-89
2021/09/03 11:24:55;;;;;;;18.93;13.00;;;23.40;56.50;;;;;;4979176;28;20443;-90
2021/09/03 11:27:27;;;;;;;25.93;13.47;;;23.30;57.00;;;;;;4960292;28;20416;-90
2021/09/03 11:30:01;;;;;;;17.53;13.10;;;23.40;57.20;;;;;;4964023;28;20407;-90
2021/09/03 11:32:38;;;;;;;21.03;15.60;;;23.40;57.30;;;;;;4966606;28;20996;-90
2021/09/03 11:35:07;;;;;;;21.60;14.33;;;23.50;57.10;;;;;;4960596;28;20466;-90
2021/09/03 11:37:47;;;;;;;24.43;15.53;;;23.60;57.00;;;;;;4963118;28;20423;-90
2021/09/03 11:40:13;;;;;;;20.17;15.20;;;23.70;57.30;;;;;;4980971;28;20480;-90
2021/09/03 11:43:00;;;;;;;24.70;15.17;;;23.90;56.20;;;;;;4994220;28;20442;-90
2021/09/03 11:45:35;;;;;;;21.30;15.00;;;23.90;56.10;;;;;;4998248;28;20482;-88
2021/09/03 11:48:06;;;;;;;22.40;14.40;;;24.00;56.20;;;;;;4998899;28;20423;-89
2021/09/03 11:50:35;;;;;;;17.20;12.70;;;24.10;56.00;;;;;;4992288;28;20550;-90
2021/09/03 11:53:07;;;;;;;16.80;12.80;;;24.10;55.70;;;;;;4986084;28;20450;-88
2021/09/03 11:55:42;;;;;;;21.63;15.00;;;24.40;55.20;;;;;;5016245;28;20411;-90
2021/09/03 11:58:16;;;;;;;17.30;14.57;;;24.30;54.70;;;;;;4991272;28;20420;-90
2021/09/03 12:00:44;;;;;;;19.87;14.03;;;24.20;54.70;;;;;;4994567;28;20429;-90
2021/09/03 12:03:10;;;;;;;19.47;13.27;;;24.30;54.90;;;;;;4996486;28;20445;-90
2021/09/03 12:05:40;;;;;;;17.23;12.57;;;24.50;54.70;;;;;;4982931;28;20458;-90
2021/09/03 12:08:12;;;;;;;16.50;12.23;;;24.60;53.90;;;;;;4989029;28;20200;-89
2021/09/03 12:10:52;;;;;;;18.80;13.20;;;24.60;53.30;;;;;;4977240;28;20407;-89
2021/09/03 12:13:21;;;;;;;15.10;11.90;;;24.70;53.70;;;;;;4960183;28;20470;-89
2021/09/03 12:16:04;;;;;;;18.40;14.33;;;24.90;52.90;;;;;;4960609;28;20494;-90
2021/09/03 12:18:36;;;;;;;18.70;13.43;;;24.70;52.60;;;;;;4960350;28;20514;-90
2021/09/03 12:21:18;;;;;;;20.17;15.40;;;24.60;52.80;;;;;;4960118;28;20922;-90
2021/09/03 12:24:03;;;;;;;20.63;15.07;;;24.60;53.10;;;;;;4959827;28;20801;-90
2021/09/03 12:26:47;;;;;;;23.67;16.63;;;24.50;53.60;;;;;;4959937;28;20466;-90
2021/09/03 12:29:14;;;;;;;19.23;13.53;;;24.50;53.40;;;;;;4960065;28;20432;-90
2021/09/03 12:31:52;;;;;;;19.17;14.03;;;24.70;53.30;;;;;;4959470;28;20451;-90
2021/09/03 12:34:18;;;;;;;24.60;14.17;;;24.60;53.40;;;;;;4959867;28;20418;-90